Time;durP1;ratioP1;P1;durP2;ratioP2;P2;SDS_P1;SDS_P2;PMS_P1;PMS_P2;Temp;Humidity;BMP_temperature;BMP_pressure;BME280_temperature;BME280_humidity;BME280_pressure;Samples;Min_cycle;Max_cycle;Signal;HPM_P1;HPM_P2
2022/01/11 00:01:42;;;;;;;;;;;;;;;26.68;59.97;96628.08;625957;226;64998;-68
2022/01/11 00:04:12;;;;;;;;;;;;;;;26.68;57.28;96636.16;626002;226;67220;-67
2022/01/11 00:06:44;;;;;;;;;;;;;;;26.69;55.16;96628.87;625863;224;65315;-68
2022/01/11 00:09:20;;;;;;;;;;;;;;;26.67;59.22;96639.95;625853;226;63474;-68
2022/01/11 00:11:38;;;;;;;;;;;;;;;26.68;59.97;96644.25;625601;226;67285;-68
2022/01/11 00:14:05;;;;;;;;;;;;;;;26.64;59.46;96648.67;625953;226;66961;-68
2022/01/11 00:16:33;;;;;;;;;;;;;;;26.63;59.54;96649.80;625992;226;62714;-68
2022/01/11 00:19:05;;;;;;;;;;;;;;;26.61;59.35;96654.70;625890;226;65625;-68
2022/01/11 00:21:29;;;;;;;;;;;;;;;26.61;61.58;96654.70;625828;226;64957;-68
2022/01/11 00:26:42;;;;;;;;;;;;;;;26.60;58.87;96655.82;625953;226;64846;-68
2022/01/11 00:29:10;;;;;;;;;;;;;;;26.58;61.47;96649.95;625935;226;67413;-68
2022/01/11 00:31:40;;;;;;;;;;;;;;;26.56;60.58;96655.64;625979;226;47972;-68
2022/01/11 00:34:08;;;;;;;;;;;;;;;26.55;62.54;96659.45;625939;226;67444;-68
2022/01/11 00:36:42;;;;;;;;;;;;;;;26.53;62.26;96667.05;625943;226;67476;-68
2022/01/11 00:39:10;;;;;;;;;;;;;;;26.54;58.12;96671.32;625941;226;65146;-68
2022/01/11 00:41:38;;;;;;;;;;;;;;;26.52;60.28;96672.77;625936;226;65025;-68
2022/01/11 00:44:07;;;;;;;;;;;;;;;26.50;58.58;96669.56;625917;226;67618;-60
2022/01/11 00:46:35;;;;;;;;;;;;;;;26.51;59.70;96671.17;625964;226;62642;-68
2022/01/11 00:49:03;;;;;;;;;;;;;;;26.51;60.58;96665.78;625963;226;64661;-68
2022/01/11 00:51:30;;;;;;;;;;;;;;;26.49;61.61;96676.04;625381;226;64947;-68
2022/01/11 00:53:58;;;;;;;;;;;;;;;26.46;61.65;96682.85;624802;227;65170;-68
2022/01/11 00:56:25;;;;;;;;;;;;;;;26.48;61.49;96682.55;624757;227;66788;-68
2022/01/11 00:58:53;;;;;;;;;;;;;;;26.45;62.90;96680.48;624802;227;67123;-68
2022/01/11 01:01:21;;;;;;;;;;;;;;;26.45;60.35;96675.09;624792;227;62812;-68
2022/01/11 01:03:49;;;;;;;;;;;;;;;26.43;61.58;96688.08;624797;227;64816;-68
2022/01/11 01:06:17;;;;;;;;;;;;;;;26.43;62.95;96685.39;624777;227;65006;-68
2022/01/11 01:08:44;;;;;;;;;;;;;;;26.42;61.18;96692.69;624769;227;65009;-68
2022/01/11 01:11:12;;;;;;;;;;;;;;;26.42;58.91;96695.38;624796;227;65835;-68
2022/01/11 01:13:41;;;;;;;;;;;;;;;26.44;61.48;96687.00;624808;226;45379;-69
2022/01/11 01:16:10;;;;;;;;;;;;;;;26.43;57.59;96685.39;624792;227;62480;-61
2022/01/11 01:18:48;;;;;;;;;;;;;;;26.41;56.50;96685.72;624747;226;44361;-61
2022/01/11 01:21:17;;;;;;;;;;;;;;;26.41;62.15;96684.91;624754;227;67821;-61
2022/01/11 01:23:45;;;;;;;;;;;;;;;26.40;60.78;96684.12;624764;227;65127;-61
2022/01/11 01:26:14;;;;;;;;;;;;;;;26.37;61.92;96686.66;624827;227;68046;-61
2022/01/11 01:28:41;;;;;;;;;;;;;;;26.37;59.62;96692.05;624788;227;67742;-60
2022/01/11 01:31:09;;;;;;;;;;;;;;;26.34;61.86;96688.86;624789;227;65042;-60
2022/01/11 01:33:36;;;;;;;;;;;;;;;26.38;62.53;96701.70;624782;227;64839;-61
2022/01/11 01:36:11;;;;;;;;;;;;;;;26.37;62.85;96700.13;624769;227;64857;-61
2022/01/11 01:38:34;;;;;;;;;;;;;;;26.34;61.44;96705.02;624709;226;65288;-60
2022/01/11 01:41:11;;;;;;;;;;;;;;;26.36;62.06;96707.42;624798;227;64472;-61
2022/01/11 01:43:31;;;;;;;;;;;;;;;26.33;61.04;96714.22;624544;226;67481;-60
2022/01/11 01:46:00;;;;;;;;;;;;;;;26.32;63.41;96706.44;624775;227;64969;-61
2022/01/11 01:48:29;;;;;;;;;;;;;;;26.29;60.69;96707.07;624792;227;68130;-69
2022/01/11 01:50:57;;;;;;;;;;;;;;;26.34;58.70;96706.93;624530;226;67169;-69
2022/01/11 01:53:26;;;;;;;;;;;;;;;26.32;61.69;96712.62;624797;227;63031;-69
2022/01/11 01:55:53;;;;;;;;;;;;;;;26.32;60.99;96711.83;624768;227;67116;-69
2022/01/11 01:58:21;;;;;;;;;;;;;;;26.31;59.99;96719.12;624781;227;65063;-69
2022/01/11 02:00:55;;;;;;;;;;;;;;;26.30;57.47;96717.55;624774;227;64952;-69
2022/01/11 02:03:26;;;;;;;;;;;;;;;26.29;58.41;96718.63;624731;226;67358;-69
2022/01/11 02:05:50;;;;;;;;;;;;;;;26.27;60.57;96720.05;624730;226;67076;-69
2022/01/11 02:08:18;;;;;;;;;;;;;;;26.27;61.30;96720.87;624768;227;66117;-69
2022/01/11 02:10:46;;;;;;;;;;;;;;;26.27;62.07;96715.48;624770;227;67124;-69
2022/01/11 02:13:13;;;;;;;;;;;;;;;26.25;60.74;96714.99;624798;227;64982;-69
2022/01/11 02:15:41;;;;;;;;;;;;;;;26.25;60.88;96712.30;624763;227;66207;-60
2022/01/11 02:18:10;;;;;;;;;;;;;;;26.24;57.18;96721.47;624825;227;64537;-61
2022/01/11 02:20:39;;;;;;;;;;;;;;;26.27;57.70;96731.64;624779;227;65774;-61
2022/01/11 02:23:07;;;;;;;;;;;;;;;26.25;58.62;96731.16;624744;227;65741;-61
2022/01/11 02:25:36;;;;;;;;;;;;;;;26.25;56.74;96725.77;624808;227;67198;-60
2022/01/11 02:28:05;;;;;;;;;;;;;;;26.23;61.65;96725.27;624842;227;67334;-60
2022/01/11 02:30:34;;;;;;;;;;;;;;;26.21;60.98;96727.48;624826;227;62986;-61
2022/01/11 02:33:04;;;;;;;;;;;;;;;26.23;57.70;96733.36;624870;227;66483;-69
2022/01/11 02:35:32;;;;;;;;;;;;;;;26.23;61.97;96735.27;624789;227;64864;-69
2022/01/11 02:38:00;;;;;;;;;;;;;;;26.20;61.09;96739.37;624782;227;65744;-69
2022/01/11 02:40:28;;;;;;;;;;;;;;;26.20;60.58;96742.06;624812;227;66838;-69
2022/01/11 02:42:55;;;;;;;;;;;;;;;26.20;60.17;96747.45;624781;227;64536;-69
2022/01/11 02:45:23;;;;;;;;;;;;;;;26.18;61.35;96743.48;624837;227;65021;-69
2022/01/11 02:47:51;;;;;;;;;;;;;;;26.19;59.86;96748.56;624805;227;67495;-69
2022/01/11 02:50:19;;;;;;;;;;;;;;;26.19;60.75;96759.34;624727;227;67016;-61
2022/01/11 02:52:48;;;;;;;;;;;;;;;26.19;58.49;96751.27;624760;226;65044;-61
2022/01/11 02:55:16;;;;;;;;;;;;;;;26.19;61.70;96751.27;624737;227;64333;-61
2022/01/11 02:57:44;;;;;;;;;;;;;;;26.18;60.53;96748.86;624835;227;67580;-61
2022/01/11 03:00:16;;;;;;;;;;;;;;;26.18;56.53;96752.34;624723;226;41547;-61
2022/01/11 03:02:44;;;;;;;;;;;;;;;26.17;57.28;96758.06;624774;227;67410;-61
2022/01/11 03:05:12;;;;;;;;;;;;;;;26.12;60.70;96753.59;624789;227;67161;-61
2022/01/11 03:07:40;;;;;;;;;;;;;;;26.14;61.62;96754.09;624754;227;65144;-61
2022/01/11 03:10:24;;;;;;;;;;;;;;;26.13;60.56;96758.66;624811;227;67299;-61
2022/01/11 03:12:49;;;;;;;;;;;;;;;26.11;60.97;96754.72;624431;226;49223;-60
2022/01/11 03:15:16;;;;;;;;;;;;;;;26.10;56.86;96759.28;624763;227;64994;-60
2022/01/11 03:17:46;;;;;;;;;;;;;;;26.11;56.62;96755.50;624828;226;44274;-61
2022/01/11 03:20:13;;;;;;;;;;;;;;;26.10;60.50;96764.67;624816;227;67049;-61
2022/01/11 03:22:41;;;;;;;;;;;;;;;26.11;58.99;96760.10;624792;227;65044;-61
2022/01/11 03:25:10;;;;;;;;;;;;;;;26.09;59.24;96765.00;624829;227;67689;-61
2022/01/11 03:27:38;;;;;;;;;;;;;;;26.06;57.65;96771.80;624784;227;66890;-61
2022/01/11 03:30:07;;;;;;;;;;;;;;;26.08;57.36;96776.85;624814;227;64931;-61
2022/01/11 03:32:36;;;;;;;;;;;;;;;26.06;60.89;96779.08;624805;227;65589;-69
2022/01/11 03:35:06;;;;;;;;;;;;;;;26.05;60.29;96778.27;624812;226;43973;-69
2022/01/11 03:37:34;;;;;;;;;;;;;;;26.04;56.63;96786.67;624868;227;65016;-69
2022/01/11 03:40:02;;;;;;;;;;;;;;;26.03;62.01;96782.39;624839;227;65961;-69
2022/01/11 03:42:30;;;;;;;;;;;;;;;26.03;61.93;96785.09;624803;227;67225;-69
2022/01/11 03:44:57;;;;;;;;;;;;;;;26.02;59.20;96783.48;624812;227;65740;-69
2022/01/11 03:47:25;;;;;;;;;;;;;;;26.03;60.24;96783.19;624753;227;64987;-69
2022/01/11 03:49:53;;;;;;;;;;;;;;;26.02;59.89;96791.56;624775;227;67152;-69
2022/01/11 03:52:20;;;;;;;;;;;;;;;26.01;58.45;96789.98;624837;226;62710;-70
2022/01/11 03:55:04;;;;;;;;;;;;;;;26.00;60.47;96796.45;624807;227;67893;-70
2022/01/11 03:57:23;;;;;;;;;;;;;;;25.98;59.40;96804.06;624538;226;67584;-69
2022/01/11 03:59:50;;;;;;;;;;;;;;;25.99;58.46;96805.64;624765;227;62916;-69
2022/01/11 04:02:18;;;;;;;;;;;;;;;25.99;60.94;96805.64;624782;227;67165;-69
2022/01/11 04:04:52;;;;;;;;;;;;;;;25.97;58.64;96805.16;624860;227;67685;-69
2022/01/11 04:07:15;;;;;;;;;;;;;;;25.95;59.96;96808.17;624706;226;65677;-69
2022/01/11 04:09:43;;;;;;;;;;;;;;;25.96;58.72;96817.03;624794;227;64404;-70
2022/01/11 04:12:12;;;;;;;;;;;;;;;25.96;58.98;96823.20;624811;227;67383;-70
2022/01/11 04:14:39;;;;;;;;;;;;;;;25.96;61.38;96823.20;624724;227;65042;-70
2022/01/11 04:17:07;;;;;;;;;;;;;;;25.95;60.07;96827.02;624852;227;65209;-70
2022/01/11 04:19:34;;;;;;;;;;;;;;;25.93;57.93;96833.81;624834;227;67076;-69
2022/01/11 04:22:02;;;;;;;;;;;;;;;25.91;61.95;96847.56;624805;227;65192;-69
2022/01/11 04:24:30;;;;;;;;;;;;;;;25.91;58.00;96842.17;624779;227;67067;-69
2022/01/11 04:26:58;;;;;;;;;;;;;;;25.90;61.69;96844.08;624782;227;66983;-70
2022/01/11 04:29:25;;;;;;;;;;;;;;;25.88;60.69;96857.05;624777;227;62691;-61
2022/01/11 04:31:53;;;;;;;;;;;;;;;25.88;57.51;96861.64;624879;227;64718;-61
2022/01/11 04:34:21;;;;;;;;;;;;;;;25.89;57.46;96861.34;624784;227;67491;-61
2022/01/11 04:36:50;;;;;;;;;;;;;;;25.88;57.81;96859.73;624820;227;45029;-61
2022/01/11 04:39:18;;;;;;;;;;;;;;;25.87;61.27;96863.54;624775;227;67569;-61
2022/01/11 04:41:46;;;;;;;;;;;;;;;25.86;59.11;96861.97;624756;227;66920;-61
2022/01/11 04:44:14;;;;;;;;;;;;;;;25.84;57.74;96880.31;624839;227;65165;-61
2022/01/11 04:46:42;;;;;;;;;;;;;;;25.85;60.36;96878.41;624813;227;67752;-61
2022/01/11 04:49:09;;;;;;;;;;;;;;;25.84;59.62;96883.00;624759;227;65198;-61
2022/01/11 04:51:37;;;;;;;;;;;;;;;25.81;59.64;96886.28;624675;226;65755;-61
2022/01/11 04:54:05;;;;;;;;;;;;;;;25.83;60.03;96889.47;624802;227;67890;-61
2022/01/11 04:56:33;;;;;;;;;;;;;;;25.82;61.47;96887.86;624834;227;66866;-61
2022/01/11 04:59:01;;;;;;;;;;;;;;;25.80;57.68;96892.74;624795;227;64841;-61
2022/01/11 05:01:29;;;;;;;;;;;;;;;25.79;61.75;96893.06;624781;227;64189;-61
2022/01/11 05:03:57;;;;;;;;;;;;;;;25.77;59.56;96884.49;624745;227;67310;-70
2022/01/11 05:06:26;;;;;;;;;;;;;;;25.77;59.45;96896.05;624847;227;64921;-70
2022/01/11 05:08:54;;;;;;;;;;;;;;;25.77;57.36;96893.36;624797;227;65782;-70
2022/01/11 05:11:22;;;;;;;;;;;;;;;25.79;60.87;96893.06;624805;227;64848;-70
2022/01/11 05:13:50;;;;;;;;;;;;;;;25.80;59.95;96900.82;624790;227;62664;-69
2022/01/11 05:16:35;;;;;;;;;;;;;;;25.80;61.19;96906.20;624899;227;37654;-69
2022/01/11 05:19:06;;;;;;;;;;;;;;;25.79;60.97;96903.83;624736;227;67590;-69
2022/01/11 05:21:33;;;;;;;;;;;;;;;25.76;59.31;96907.93;624813;226;65933;-70
2022/01/11 05:24:00;;;;;;;;;;;;;;;25.77;57.48;96914.10;624799;227;66836;-70
2022/01/11 05:26:28;;;;;;;;;;;;;;;25.79;61.12;96920.77;624777;227;64926;-70
2022/01/11 05:28:55;;;;;;;;;;;;;;;25.76;62.91;96925.98;624774;227;65176;-70
2022/01/11 05:31:23;;;;;;;;;;;;;;;25.78;60.80;96929.96;624792;227;67463;-70
2022/01/11 05:33:50;;;;;;;;;;;;;;;25.77;61.95;96928.35;624608;227;64816;-70
2022/01/11 05:36:18;;;;;;;;;;;;;;;25.78;62.01;96934.52;624586;227;65186;-70
2022/01/11 05:38:46;;;;;;;;;;;;;;;25.75;57.65;96941.31;623533;227;68013;-70
2022/01/11 05:41:17;;;;;;;;;;;;;;;25.75;61.87;96941.31;623615;227;67003;-70
2022/01/11 05:43:46;;;;;;;;;;;;;;;25.75;63.01;96944.00;624816;225;44998;-70
2022/01/11 05:46:14;;;;;;;;;;;;;;;25.77;59.45;96941.81;624785;227;67090;-70
2022/01/11 05:48:44;;;;;;;;;;;;;;;25.79;59.90;96938.83;624833;227;64991;-70
2022/01/11 05:51:12;;;;;;;;;;;;;;;25.77;61.30;96944.50;624736;226;64897;-70
2022/01/11 05:53:40;;;;;;;;;;;;;;;25.77;64.53;96960.66;624764;227;67270;-70
2022/01/11 05:56:07;;;;;;;;;;;;;;;25.76;63.08;96953.69;624671;227;64905;-70
2022/01/11 05:58:35;;;;;;;;;;;;;;;25.77;64.29;96951.78;624742;227;65650;-70
2022/01/11 06:01:04;;;;;;;;;;;;;;;25.74;61.10;96950.50;624541;227;67978;-70
2022/01/11 06:03:31;;;;;;;;;;;;;;;25.76;62.60;96963.66;624766;227;65670;-70
2022/01/11 06:05:59;;;;;;;;;;;;;;;25.77;64.04;96962.55;624735;227;65755;-70
2022/01/11 06:08:27;;;;;;;;;;;;;;;25.76;64.45;96966.36;624761;227;64769;-71
2022/01/11 06:10:56;;;;;;;;;;;;;;;25.77;63.48;96971.42;624786;227;66788;-69
2022/01/11 06:13:24;;;;;;;;;;;;;;;25.79;64.06;96974.61;624769;227;65785;-70
2022/01/11 06:15:53;;;;;;;;;;;;;;;25.82;63.09;96983.98;624874;226;45798;-70
2022/01/11 06:18:21;;;;;;;;;;;;;;;25.84;64.50;96985.30;624757;227;67225;-70
2022/01/11 06:20:57;;;;;;;;;;;;;;;25.84;63.53;96992.59;622791;227;45219;-70
2022/01/11 06:23:25;;;;;;;;;;;;;;;25.84;63.83;96992.59;624791;227;64551;-70
2022/01/11 06:25:52;;;;;;;;;;;;;;;25.85;63.38;96999.55;624722;227;65477;-70
2022/01/11 06:28:20;;;;;;;;;;;;;;;25.87;61.85;96998.15;624776;227;64927;-68
2022/01/11 06:30:47;;;;;;;;;;;;;;;25.90;63.27;97010.21;624780;227;67600;-68
2022/01/11 06:33:15;;;;;;;;;;;;;;;25.91;62.70;97012.58;624815;227;66745;-68
2022/01/11 06:35:43;;;;;;;;;;;;;;;25.92;63.33;97013.41;624819;227;63061;-68
2022/01/11 06:38:11;;;;;;;;;;;;;;;25.95;61.16;97020.08;624788;227;66998;-68
2022/01/11 06:40:39;;;;;;;;;;;;;;;25.97;62.37;97023.25;624843;227;67433;-68
2022/01/11 06:43:07;;;;;;;;;;;;;;;25.99;61.86;97029.13;624759;227;63008;-68
2022/01/11 06:45:36;;;;;;;;;;;;;;;26.02;61.33;97036.60;624806;227;64631;-69
2022/01/11 06:48:05;;;;;;;;;;;;;;;26.04;61.57;97034.41;624575;227;64712;-70
2022/01/11 06:50:34;;;;;;;;;;;;;;;26.05;62.61;97044.86;624004;226;65053;-70
2022/01/11 06:53:01;;;;;;;;;;;;;;;26.07;61.95;97045.36;625073;226;66918;-60
2022/01/11 06:55:29;;;;;;;;;;;;;;;26.09;61.49;97053.95;625301;226;64602;-64
2022/01/11 06:57:57;;;;;;;;;;;;;;;26.11;61.53;97057.14;625600;226;65016;-65
2022/01/11 07:00:25;;;;;;;;;;;;;;;26.16;58.86;97061.59;625802;226;67108;-65
2022/01/11 07:02:55;;;;;;;;;;;;;;;26.21;58.44;97056.09;625679;226;48087;-64
2022/01/11 07:05:43;;;;;;;;;;;;;;;26.26;57.07;97057.89;625861;226;45061;-63
2022/01/11 07:08:12;;;;;;;;;;;;;;;26.30;58.79;97064.25;625945;226;65731;-65
2022/01/11 07:10:39;;;;;;;;;;;;;;;26.27;58.44;97064.86;625866;226;66920;-63
2022/01/11 07:13:08;;;;;;;;;;;;;;;26.31;58.64;97060.47;619355;226;62491;-62
2022/01/11 07:15:35;;;;;;;;;;;;;;;26.33;57.02;97075.23;618778;229;64787;-63
2022/01/11 07:18:08;;;;;;;;;;;;;;;26.37;58.88;97078.11;618750;229;67154;-69
2022/01/11 07:20:33;;;;;;;;;;;;;;;26.39;57.25;97081.30;617960;229;65952;-68
2022/01/11 07:23:02;;;;;;;;;;;;;;;26.41;57.53;97080.98;618712;229;67587;-70
2022/01/11 07:25:33;;;;;;;;;;;;;;;26.44;55.56;97083.09;618769;229;67559;-71
2022/01/11 07:28:04;;;;;;;;;;;;;;;26.45;55.21;97088.16;618722;229;65023;-66
2022/01/11 07:30:32;;;;;;;;;;;;;;;26.47;56.64;97091.34;618739;229;67146;-62
2022/01/11 07:33:00;;;;;;;;;;;;;;;26.49;57.13;97097.23;618719;229;65949;-61
2022/01/11 07:35:29;;;;;;;;;;;;;;;26.52;54.83;97102.05;618777;229;64918;-63
2022/01/11 07:37:57;;;;;;;;;;;;;;;26.55;56.41;97103.34;618776;229;67145;-63
2022/01/11 07:40:26;;;;;;;;;;;;;;;26.57;55.51;97103.81;618639;229;67753;-62
2022/01/11 07:42:55;;;;;;;;;;;;;;;26.59;56.85;97103.52;618654;229;42590;-63
2022/01/11 07:45:31;;;;;;;;;;;;;;;26.61;57.67;97107.50;617017;229;48247;-62
2022/01/11 07:47:59;;;;;;;;;;;;;;;26.63;55.69;97108.00;618699;229;67033;-65
2022/01/11 07:50:27;;;;;;;;;;;;;;;26.66;54.64;97107.38;618687;229;62486;-65
2022/01/11 07:52:56;;;;;;;;;;;;;;;26.67;54.46;97111.66;618745;229;67482;-64
2022/01/11 07:55:23;;;;;;;;;;;;;;;26.68;56.38;97113.27;618671;229;64412;-64
2022/01/11 07:57:51;;;;;;;;;;;;;;;26.70;54.65;97116.44;618710;229;65834;-62
2022/01/11 08:00:19;;;;;;;;;;;;;;;26.72;55.63;97119.63;618722;229;68072;-62
2022/01/11 08:02:48;;;;;;;;;;;;;;;26.73;55.39;97115.83;618700;229;43262;-62
2022/01/11 08:05:18;;;;;;;;;;;;;;;26.74;55.54;97122.04;618384;229;46748;-62
2022/01/11 08:07:46;;;;;;;;;;;;;;;26.75;54.53;97124.41;618706;229;64877;-61
2022/01/11 08:10:18;;;;;;;;;;;;;;;26.77;54.58;97122.21;618529;228;48816;-62
2022/01/11 08:12:45;;;;;;;;;;;;;;;26.75;55.31;97120.92;618704;229;69463;-62
2022/01/11 08:15:13;;;;;;;;;;;;;;;26.76;55.64;97123.33;620152;226;64558;-62
2022/01/11 08:17:41;;;;;;;;;;;;;;;26.79;54.47;97128.10;625835;226;64812;-63
2022/01/11 08:20:09;;;;;;;;;;;;;;;26.84;55.26;97142.55;625886;226;65732;-63
2022/01/11 08:22:37;;;;;;;;;;;;;;;26.86;53.98;97132.27;625825;226;65101;-62
2022/01/11 08:25:06;;;;;;;;;;;;;;;26.87;54.05;97136.55;625803;226;67403;-62
2022/01/11 08:27:34;;;;;;;;;;;;;;;26.88;53.88;97133.55;625879;226;65106;-62
2022/01/11 08:30:04;;;;;;;;;;;;;;;26.91;53.77;97132.14;625894;226;67587;-62
2022/01/11 08:32:32;;;;;;;;;;;;;;;26.83;53.36;97133.67;625820;226;65580;-62
2022/01/11 08:35:00;;;;;;;;;;;;;;;26.85;53.38;97144.95;625824;226;65718;-62
2022/01/11 08:37:28;;;;;;;;;;;;;;;26.86;53.96;97148.44;625824;226;67674;-62
2022/01/11 08:39:55;;;;;;;;;;;;;;;26.87;53.57;97150.03;625917;226;64532;-64
2022/01/11 08:42:27;;;;;;;;;;;;;;;26.78;55.28;97156.15;625939;226;65036;-63
2022/01/11 08:44:55;;;;;;;;;;;;;;;26.76;56.73;97163.77;625835;226;65091;-66
2022/01/11 08:47:30;;;;;;;;;;;;;;;26.75;56.63;97162.16;625862;225;43807;-67
2022/01/11 08:49:54;;;;;;;;;;;;;;;26.73;57.41;97167.05;625762;226;65771;-65
2022/01/11 08:52:22;;;;;;;;;;;;;;;26.73;55.53;97150.87;624829;226;67209;-67
2022/01/11 08:54:51;;;;;;;;;;;;;;;26.73;53.99;97164.35;624635;227;65216;-67
2022/01/11 08:57:20;;;;;;;;;;;;;;;26.73;56.18;97164.35;624752;227;65189;-67
2022/01/11 08:59:49;;;;;;;;;;;;;;;26.74;57.57;97174.05;624626;226;49137;-67
2022/01/11 09:02:20;;;;;;;;;;;;;;;26.74;55.78;97175.95;624661;227;66928;-66
2022/01/11 09:04:47;;;;;;;;;;;;;;;26.75;56.61;97178.33;624656;226;62779;-66
2022/01/11 09:07:16;;;;;;;;;;;;;;;26.76;55.87;97182.64;624672;226;45653;-67
2022/01/11 09:09:44;;;;;;;;;;;;;;;26.69;53.67;97184.16;624699;227;64568;-67
2022/01/11 09:12:15;;;;;;;;;;;;;;;26.76;54.36;97182.64;624696;227;65713;-66
2022/01/11 09:14:44;;;;;;;;;;;;;;;26.79;56.11;97190.12;624705;226;45942;-63
2022/01/11 09:17:12;;;;;;;;;;;;;;;26.77;56.91;97186.13;624699;227;66921;-70
2022/01/11 09:19:40;;;;;;;;;;;;;;;26.67;55.17;97192.53;624754;227;65663;-68
2022/01/11 09:22:09;;;;;;;;;;;;;;;26.67;53.56;97195.23;624708;227;67812;-66
2022/01/11 09:24:37;;;;;;;;;;;;;;;26.69;55.05;97190.34;624670;227;67613;-66
2022/01/11 09:27:06;;;;;;;;;;;;;;;26.68;56.83;97196.84;624619;227;65473;-66
2022/01/11 09:29:36;;;;;;;;;;;;;;;26.71;56.44;97203.50;624721;227;67209;-66
2022/01/11 09:32:05;;;;;;;;;;;;;;;26.72;57.13;97199.72;624760;227;64604;-66
2022/01/11 09:34:37;;;;;;;;;;;;;;;26.71;57.50;97195.41;624679;227;62864;-66
2022/01/11 09:37:04;;;;;;;;;;;;;;;26.71;57.90;97198.11;624679;227;67772;-68
2022/01/11 09:39:32;;;;;;;;;;;;;;;26.73;57.32;97199.40;624728;227;67026;-66
2022/01/11 09:42:01;;;;;;;;;;;;;;;26.73;57.75;97201.30;624705;227;62966;-68
2022/01/11 09:44:29;;;;;;;;;;;;;;;26.75;57.63;97201.80;624699;227;65063;-65
2022/01/11 09:46:57;;;;;;;;;;;;;;;26.75;58.41;97207.20;624712;227;67533;-68
2022/01/11 09:49:26;;;;;;;;;;;;;;;26.75;58.30;97210.69;624622;225;64987;-65
2022/01/11 09:51:54;;;;;;;;;;;;;;;26.75;58.98;97213.38;624643;226;65694;-66
2022/01/11 09:54:24;;;;;;;;;;;;;;;26.75;59.48;97210.69;624735;227;67246;-67
2022/01/11 09:56:53;;;;;;;;;;;;;;;26.76;58.63;97208.78;624625;227;65008;-67
2022/01/11 09:59:21;;;;;;;;;;;;;;;26.79;58.76;97210.86;624660;227;66719;-66
2022/01/11 10:01:57;;;;;;;;;;;;;;;26.79;57.69;97208.98;618958;226;48624;-67
2022/01/11 10:04:41;;;;;;;;;;;;;;;26.78;58.95;97218.16;624379;226;47488;-67
2022/01/11 10:07:19;;;;;;;;;;;;;;;26.80;58.55;97209.78;624644;226;45394;-67
2022/01/11 10:09:48;;;;;;;;;;;;;;;26.79;58.40;97211.69;624684;227;66959;-67
2022/01/11 10:12:18;;;;;;;;;;;;;;;26.79;58.13;97219.77;624680;227;62580;-68
2022/01/11 10:14:48;;;;;;;;;;;;;;;26.80;57.96;97223.27;624735;227;65136;-67
2022/01/11 10:17:20;;;;;;;;;;;;;;;26.82;58.11;97195.98;624404;227;68261;-67
2022/01/11 10:19:50;;;;;;;;;;;;;;;26.78;57.98;97223.55;624557;226;47488;-67
2022/01/11 10:22:20;;;;;;;;;;;;;;;26.83;58.27;97229.95;624753;227;66945;-66
2022/01/11 10:24:48;;;;;;;;;;;;;;;26.83;57.53;97233.44;624633;227;66899;-66
2022/01/11 10:27:19;;;;;;;;;;;;;;;26.86;58.06;97229.34;624607;226;43682;-66
2022/01/11 10:29:54;;;;;;;;;;;;;;;26.89;58.67;97231.42;621426;227;66286;-67
2022/01/11 10:32:30;;;;;;;;;;;;;;;26.89;59.06;97231.42;621401;227;45678;-67
2022/01/11 10:35:00;;;;;;;;;;;;;;;26.89;58.38;97231.42;621371;227;43715;-68
2022/01/11 10:37:35;;;;;;;;;;;;;;;26.90;58.21;97243.80;620738;227;65896;-67
2022/01/11 10:40:06;;;;;;;;;;;;;;;26.89;58.99;97231.42;616626;227;66884;-67
2022/01/11 10:42:38;;;;;;;;;;;;;;;26.90;59.01;97239.22;617651;229;65520;-67
2022/01/11 10:45:06;;;;;;;;;;;;;;;26.90;59.08;97230.31;617634;227;68121;-66
2022/01/11 10:47:36;;;;;;;;;;;;;;;26.92;59.63;97230.81;617438;228;67258;-67
2022/01/11 10:50:10;;;;;;;;;;;;;;;26.92;59.22;97231.60;617615;229;62485;-65
2022/01/11 10:52:42;;;;;;;;;;;;;;;26.92;59.09;97226.20;618498;227;48134;-67
2022/01/11 10:55:19;;;;;;;;;;;;;;;26.93;59.13;97237.81;618703;228;45174;-66
2022/01/11 10:57:51;;;;;;;;;;;;;;;26.94;59.44;97244.80;618757;229;65043;-70
2022/01/11 11:00:20;;;;;;;;;;;;;;;26.94;59.56;97245.59;618539;228;67441;-70
2022/01/11 11:02:49;;;;;;;;;;;;;;;26.95;60.17;97241.78;618742;229;66953;-67
2022/01/11 11:05:19;;;;;;;;;;;;;;;26.90;57.41;97244.61;618726;229;65726;-66
2022/01/11 11:08:00;;;;;;;;;;;;;;;26.94;57.82;97239.40;618690;229;66786;-67
2022/01/11 11:10:33;;;;;;;;;;;;;;;26.94;59.34;97242.09;618713;229;67171;-67
2022/01/11 11:13:03;;;;;;;;;;;;;;;26.94;58.89;97244.80;618734;228;46835;-66
2022/01/11 11:15:36;;;;;;;;;;;;;;;26.95;59.40;97247.17;618695;229;67049;-67
2022/01/11 11:18:04;;;;;;;;;;;;;;;26.98;59.64;97240.38;618727;229;67306;-67
2022/01/11 11:20:34;;;;;;;;;;;;;;;26.96;60.32;97239.91;618720;229;43913;-67
2022/01/11 11:23:04;;;;;;;;;;;;;;;26.97;60.42;97244.18;618683;229;65059;-67
2022/01/11 11:25:31;;;;;;;;;;;;;;;26.98;60.10;97243.89;618559;229;67159;-68
2022/01/11 11:27:59;;;;;;;;;;;;;;;26.99;60.45;97240.08;618698;229;65058;-69
2022/01/11 11:30:26;;;;;;;;;;;;;;;26.99;59.84;97248.17;618741;229;67214;-68
2022/01/11 11:32:54;;;;;;;;;;;;;;;27.00;59.42;97251.66;618710;229;67028;-67
2022/01/11 11:35:22;;;;;;;;;;;;;;;27.02;59.48;97249.47;618732;229;64895;-67
2022/01/11 11:37:51;;;;;;;;;;;;;;;27.03;59.86;97253.74;618672;229;64666;-67
2022/01/11 11:40:23;;;;;;;;;;;;;;;27.03;60.42;97252.95;618657;228;66749;-67
2022/01/11 11:42:55;;;;;;;;;;;;;;;27.04;59.81;97249.97;618762;229;64948;-67
2022/01/11 11:45:24;;;;;;;;;;;;;;;27.05;60.03;97248.85;618538;228;67046;-66
2022/01/11 11:48:10;;;;;;;;;;;;;;;27.08;59.39;97256.33;618788;228;46814;-67
2022/01/11 11:50:48;;;;;;;;;;;;;;;27.09;60.35;97257.13;618519;226;62992;-67
2022/01/11 11:53:29;;;;;;;;;;;;;;;27.11;59.61;97273.81;617634;229;65120;-69
2022/01/11 11:56:15;;;;;;;;;;;;;;;27.11;59.32;97269.20;617661;229;64679;-66
2022/01/11 11:58:44;;;;;;;;;;;;;;;27.11;59.21;97277.30;617553;229;65120;-66
2022/01/11 12:01:16;;;;;;;;;;;;;;;27.15;60.14;97270.20;617591;229;67207;-67
2022/01/11 12:03:44;;;;;;;;;;;;;;;27.14;59.71;97271.29;613995;228;67052;-66
2022/01/11 12:06:13;;;;;;;;;;;;;;;27.16;59.60;97271.82;617587;229;65635;-67
2022/01/11 12:08:44;;;;;;;;;;;;;;;27.18;59.51;97274.23;617222;228;64893;-67
2022/01/11 12:11:14;;;;;;;;;;;;;;;27.18;59.50;97277.72;617594;229;64941;-67
2022/01/11 12:13:44;;;;;;;;;;;;;;;27.21;59.50;97277.10;617579;229;65723;-67
2022/01/11 12:16:26;;;;;;;;;;;;;;;27.24;59.70;97275.70;617647;229;64939;-67
2022/01/11 12:18:55;;;;;;;;;;;;;;;27.24;59.22;97275.70;617604;229;67057;-68
2022/01/11 12:21:23;;;;;;;;;;;;;;;27.29;59.92;97282.88;617639;229;62782;-65
2022/01/11 12:23:53;;;;;;;;;;;;;;;27.27;59.30;97291.27;617649;229;65099;-67
2022/01/11 12:26:31;;;;;;;;;;;;;;;27.27;59.68;97288.58;618193;227;66781;-69
2022/01/11 12:29:10;;;;;;;;;;;;;;;27.29;59.51;97294.47;617634;229;64903;-65
2022/01/11 12:31:40;;;;;;;;;;;;;;;27.28;59.60;97297.45;617648;229;64993;-66
2022/01/11 12:34:09;;;;;;;;;;;;;;;27.29;58.63;97290.98;617604;229;65214;-65
2022/01/11 12:36:56;;;;;;;;;;;;;;;27.33;59.15;97294.64;617604;229;62415;-66
2022/01/11 12:39:26;;;;;;;;;;;;;;;27.32;59.18;97299.25;617579;229;64972;-62
2022/01/11 12:41:54;;;;;;;;;;;;;;;27.31;57.80;97302.24;617552;228;64931;-65
2022/01/11 12:46:59;;;;;;;;;;;;;;;27.32;57.77;97303.86;606086;228;67351;-65
2022/01/11 12:49:28;;;;;;;;;;;;;;;27.30;58.23;97306.05;617672;229;67190;-64
2022/01/11 12:52:08;;;;;;;;;;;;;;;27.30;58.23;97317.64;618202;229;62998;-65
2022/01/11 12:54:27;;;;;;;;;;;;;;;27.33;58.05;97321.63;618772;228;67092;-66
2022/01/11 12:56:59;;;;;;;;;;;;;;;27.34;57.05;97321.34;618627;229;67062;-68
2022/01/11 12:59:27;;;;;;;;;;;;;;;27.37;57.10;97320.73;618663;229;63053;-66
2022/01/11 13:02:00;;;;;;;;;;;;;;;27.36;56.20;97324.51;618715;229;64899;-60
2022/01/11 13:04:39;;;;;;;;;;;;;;;27.38;55.98;97324.22;618753;228;66930;-61